Time;durP1;ratioP1;P1;durP2;ratioP2;P2;SDS_P1;SDS_P2;PMS_P1;PMS_P2;Temp;Humidity;BMP_temperature;BMP_pressure;BME280_temperature;BME280_humidity;BME280_pressure;Samples;Min_cycle;Max_cycle;Signal;HPM_P1;HPM_P2
2024/02/08 00:01:41;;;;;;;4.57;1.30;;;-3275.80;98.00;;;;;;5055591;28;20176;-69
2024/02/08 00:04:07;;;;;;;3.45;1.15;;;-3275.80;98.00;;;;;;5053452;28;20029;-69
2024/02/08 00:06:32;;;;;;;2.47;1.27;;;-3275.80;98.00;;;;;;5047846;28;20447;-69
2024/02/08 00:09:00;;;;;;;5.05;1.25;;;-3275.80;98.00;;;;;;5048722;28;20041;-69
2024/02/08 00:11:26;;;;;;;5.20;1.45;;;-3275.70;97.90;;;;;;5046325;28;20044;-69
2024/02/08 00:13:51;;;;;;;6.88;1.38;;;-3275.70;98.00;;;;;;5051684;28;20116;-69
2024/02/08 00:16:17;;;;;;;2.55;1.40;;;-3275.70;98.00;;;;;;5048499;28;20065;-69
2024/02/08 00:18:44;;;;;;;4.25;1.60;;;-3275.70;98.10;;;;;;5051763;28;20032;-69
2024/02/08 00:21:10;;;;;;;5.20;1.50;;;-3275.70;98.00;;;;;;5049383;28;20145;-69
2024/02/08 00:23:36;;;;;;;6.10;1.50;;;-3275.70;98.00;;;;;;5048790;28;20108;-68
2024/02/08 00:26:02;;;;;;;3.92;1.30;;;-3275.70;98.00;;;;;;5044316;28;20028;-69
2024/02/08 00:28:28;;;;;;;3.65;1.55;;;-3275.70;98.00;;;;;;5051806;28;20350;-69
2024/02/08 00:30:54;;;;;;;3.15;1.27;;;-3275.70;98.00;;;;;;5047979;28;20041;-69
2024/02/08 00:33:20;;;;;;;5.93;1.95;;;-3275.70;98.00;;;;;;5049686;28;20051;-69
2024/02/08 00:35:45;;;;;;;12.05;1.58;;;-3275.80;97.90;;;;;;5036871;28;20097;-69
2024/02/08 00:38:11;;;;;;;4.85;1.15;;;-3275.80;97.80;;;;;;5047045;28;20455;-69
2024/02/08 00:40:36;;;;;;;2.55;1.15;;;-3275.80;97.80;;;;;;5042992;28;20039;-69
2024/02/08 00:43:06;;;;;;;3.08;1.20;;;-3275.80;97.80;;;;;;5056126;28;20168;-68
2024/02/08 00:45:35;;;;;;;6.28;1.90;;;-3275.90;97.60;;;;;;5044912;28;20455;-69
2024/02/08 00:48:01;;;;;;;6.03;1.58;;;-3275.80;97.40;;;;;;5046211;28;20538;-69
2024/02/08 00:50:27;;;;;;;3.08;1.67;;;-3275.80;97.40;;;;;;5046169;28;20087;-69
2024/02/08 00:52:53;;;;;;;2.00;0.93;;;-3275.80;97.50;;;;;;5049746;28;20203;-69
2024/02/08 00:55:19;;;;;;;2.72;1.27;;;-3276.00;97.30;;;;;;5025504;28;20097;-68
2024/02/08 00:57:45;;;;;;;2.15;1.10;;;-3276.20;96.90;;;;;;5047038;28;20041;-68
2024/02/08 01:00:11;;;;;;;3.08;1.35;;;-3276.10;96.40;;;;;;5042170;28;20043;-69
2024/02/08 01:02:39;;;;;;;2.78;1.08;;;-3276.10;96.30;;;;;;5045956;28;20399;-69
2024/02/08 01:05:07;;;;;;;2.63;1.17;;;-3276.10;96.20;;;;;;5040436;28;20089;-69
2024/02/08 01:07:33;;;;;;;8.20;1.27;;;-3276.00;96.30;;;;;;5045357;28;20478;-69
2024/02/08 01:09:59;;;;;;;4.93;1.83;;;-3276.00;96.50;;;;;;5049092;28;20032;-69
2024/02/08 01:12:26;;;;;;;3.90;1.42;;;-3276.00;96.50;;;;;;5044923;28;20427;-69
2024/02/08 01:14:51;;;;;;;3.58;1.23;;;-3276.00;96.50;;;;;;5045923;28;20120;-69
2024/02/08 01:17:17;;;;;;;1.85;1.02;;;-3275.90;96.60;;;;;;5047675;28;20112;-69
2024/02/08 01:19:42;;;;;;;3.97;1.23;;;-3275.90;96.80;;;;;;5046387;28;20036;-69
2024/02/08 01:22:08;;;;;;;2.28;1.10;;;-3275.80;96.80;;;;;;5043587;28;20037;-69
2024/02/08 01:24:34;;;;;;;6.53;1.27;;;-3275.90;97.10;;;;;;5044198;28;20392;-72
2024/02/08 01:27:00;;;;;;;2.70;1.23;;;-3275.90;96.80;;;;;;5048572;28;20040;-69
2024/02/08 01:29:26;;;;;;;3.30;1.33;;;-3275.80;96.80;;;;;;5049843;28;20028;-69
2024/02/08 01:31:52;;;;;;;2.78;1.35;;;-3275.70;97.00;;;;;;5050205;28;20024;-69
2024/02/08 01:34:18;;;;;;;5.68;1.50;;;-3275.80;97.00;;;;;;5037338;28;20090;-69
2024/02/08 01:36:44;;;;;;;2.55;1.20;;;-3275.80;97.20;;;;;;5043584;28;20066;-69
2024/02/08 01:39:13;;;;;;;4.40;1.60;;;-3275.70;97.00;;;;;;5045708;28;20088;-69
2024/02/08 01:41:45;;;;;;;2.95;1.48;;;-3275.60;96.90;;;;;;5042469;28;20044;-69
2024/02/08 01:44:13;;;;;;;2.00;1.00;;;-3275.60;97.10;;;;;;5044595;28;20108;-69
2024/02/08 01:46:38;;;;;;;4.72;1.45;;;-3275.60;97.20;;;;;;5045635;28;20056;-69
2024/02/08 01:49:12;;;;;;;3.28;1.30;;;-3275.50;97.30;;;;;;5044683;28;20128;-69
2024/02/08 01:51:38;;;;;;;6.57;1.38;;;-3275.50;97.40;;;;;;5044786;28;20041;-69
2024/02/08 01:54:09;;;;;;;3.10;1.30;;;-3275.50;97.50;;;;;;5045436;28;20052;-68
2024/02/08 01:56:36;;;;;;;6.93;1.92;;;-3275.50;97.50;;;;;;5040744;28;20389;-69
2024/02/08 01:59:02;;;;;;;2.67;1.40;;;-3275.50;97.60;;;;;;5042313;28;20037;-69
2024/02/08 02:01:27;;;;;;;3.30;1.80;;;-3275.50;97.70;;;;;;5048578;28;20029;-69
2024/02/08 02:03:53;;;;;;;1.70;1.00;;;-3275.60;97.80;;;;;;5045982;28;20028;-68
2024/02/08 02:06:19;;;;;;;2.70;1.15;;;-3275.70;97.80;;;;;;5040593;28;20029;-69
2024/02/08 02:08:53;;;;;;;2.65;1.20;;;-3275.70;97.80;;;;;;5051847;28;20077;-68
2024/02/08 02:11:41;;;;;;;8.05;1.75;;;-3275.80;97.80;;;;;;5042701;28;20055;-69
2024/02/08 02:14:08;;;;;;;4.60;1.40;;;-3275.90;97.80;;;;;;5026105;28;20098;-69
2024/02/08 02:16:33;;;;;;;9.40;1.55;;;-3276.00;97.60;;;;;;5048662;28;20099;-69
2024/02/08 02:18:59;;;;;;;2.38;1.30;;;-3276.00;97.50;;;;;;5047706;28;20065;-69
2024/02/08 02:21:27;;;;;;;3.83;1.90;;;-3276.00;97.40;;;;;;5043611;28;20325;-69
2024/02/08 02:23:53;;;;;;;3.05;1.40;;;-3276.10;97.30;;;;;;5044381;28;20376;-69
2024/02/08 02:26:19;;;;;;;5.28;1.70;;;-3276.10;97.30;;;;;;5041130;28;20082;-69
2024/02/08 02:28:46;;;;;;;4.07;1.55;;;-3276.20;97.20;;;;;;5036785;28;20032;-69
2024/02/08 02:31:13;;;;;;;5.18;1.45;;;-3276.20;97.00;;;;;;5046448;28;20033;-68
2024/02/08 02:33:42;;;;;;;1.92;1.17;;;-3276.30;97.00;;;;;;5045740;28;20040;-70
2024/02/08 02:36:08;;;;;;;2.83;1.63;;;-3276.30;97.00;;;;;;5043808;28;20112;-69
2024/02/08 02:38:37;;;;;;;1.90;1.38;;;-3276.30;96.80;;;;;;5053315;28;20033;-69
2024/02/08 02:41:06;;;;;;;3.47;1.63;;;-3276.30;96.70;;;;;;5043794;28;20132;-69
2024/02/08 02:43:36;;;;;;;2.58;1.50;;;-3276.30;96.60;;;;;;5048399;28;20024;-69
2024/02/08 02:46:10;;;;;;;4.35;1.52;;;-3276.40;96.70;;;;;;5048460;28;20125;-69
2024/02/08 02:48:40;;;;;;;5.32;1.45;;;-3276.40;96.70;;;;;;5046518;28;20354;-69
2024/02/08 02:51:11;;;;;;;4.97;1.83;;;-3276.40;96.50;;;;;;5044589;28;20051;-69
2024/02/08 02:53:39;;;;;;;2.80;1.58;;;-3276.40;96.60;;;;;;5050005;28;20071;-69
2024/02/08 02:56:07;;;;;;;5.18;1.63;;;-3276.40;96.60;;;;;;5047192;28;20136;-69
2024/02/08 02:58:32;;;;;;;5.68;1.88;;;-3276.50;96.60;;;;;;5050921;28;20094;-69
2024/02/08 03:01:04;;;;;;;3.50;1.45;;;-3276.50;96.60;;;;;;5052983;28;20037;-69
2024/02/08 03:03:37;;;;;;;5.85;2.00;;;-3276.50;96.60;;;;;;5050682;28;20440;-69
2024/02/08 03:06:13;;;;;;;3.83;1.60;;;-3276.50;96.60;;;;;;5051864;28;20125;-69
2024/02/08 03:08:41;;;;;;;4.30;1.80;;;-3276.60;96.60;;;;;;5049053;28;20021;-68
2024/02/08 03:11:10;;;;;;;7.50;1.90;;;-3276.50;96.50;;;;;;5046400;28;20114;-69
2024/02/08 03:13:49;;;;;;;7.20;1.73;;;-3276.50;96.50;;;;;;5036727;28;20028;-69
2024/02/08 03:16:14;;;;;;;3.85;2.17;;;-3276.60;96.40;;;;;;5051792;28;20188;-68
2024/02/08 03:18:43;;;;;;;6.97;1.83;;;-3276.60;96.40;;;;;;5059456;28;20226;-69
2024/02/08 03:21:17;;;;;;;4.22;1.73;;;-3276.50;96.40;;;;;;5045733;28;20066;-69
2024/02/08 03:23:45;;;;;;;3.15;1.55;;;-3276.50;96.30;;;;;;5044870;28;20079;-69
2024/02/08 03:26:12;;;;;;;5.63;1.75;;;-3276.50;96.40;;;;;;5046244;28;20035;-69
2024/02/08 03:28:39;;;;;;;3.35;1.60;;;-3276.50;96.40;;;;;;5033849;28;20079;-69
2024/02/08 03:31:09;;;;;;;3.00;1.38;;;-3276.50;96.50;;;;;;5049754;28;20454;-69
2024/02/08 03:33:43;;;;;;;3.35;1.90;;;-3276.50;96.40;;;;;;5052056;28;20233;-69
2024/02/08 03:36:08;;;;;;;5.07;1.50;;;-3276.50;96.40;;;;;;5045240;28;20064;-69
2024/02/08 03:38:34;;;;;;;3.58;1.75;;;-3276.50;96.40;;;;;;5046867;28;20103;-69
2024/02/08 03:41:01;;;;;;;3.45;1.73;;;-3276.50;96.30;;;;;;5049938;28;20465;-69
2024/02/08 03:43:26;;;;;;;2.72;1.35;;;-3276.50;96.40;;;;;;5045676;28;20021;-69
2024/02/08 03:45:55;;;;;;;2.72;1.40;;;-3276.50;96.50;;;;;;5047442;28;20025;-69
2024/02/08 03:48:21;;;;;;;4.05;1.58;;;-3276.40;96.40;;;;;;5045713;28;20043;-69
2024/02/08 03:50:50;;;;;;;5.63;1.90;;;-3276.40;96.60;;;;;;5044694;28;20366;-68
2024/02/08 03:53:17;;;;;;;5.03;1.70;;;-3276.40;96.60;;;;;;5050192;28;20513;-69
2024/02/08 03:55:43;;;;;;;3.42;1.50;;;-3276.40;96.70;;;;;;5050230;28;20037;-69
2024/02/08 03:58:10;;;;;;;5.93;1.70;;;-3276.40;96.70;;;;;;5039002;28;20136;-69
2024/02/08 04:00:36;;;;;;;2.95;1.67;;;-3276.30;96.70;;;;;;5046688;28;20078;-69
2024/02/08 04:03:06;;;;;;;5.53;1.90;;;-3276.30;96.70;;;;;;5047265;28;20427;-68
2024/02/08 04:54:32;;;;;;;5.55;1.98;;;-3276.40;97.30;;;;;;5044237;28;20039;-69
2024/02/08 04:56:59;;;;;;;7.43;2.25;;;-3276.40;97.20;;;;;;5048245;28;20100;-69
2024/02/08 04:59:26;;;;;;;4.80;2.53;;;-3276.40;97.30;;;;;;5047696;28;20024;-69
2024/02/08 05:01:53;;;;;;;4.88;2.53;;;-3276.30;97.30;;;;;;5024824;28;20059;-69
2024/02/08 05:04:20;;;;;;;3.50;1.92;;;-3276.40;97.30;;;;;;5053891;28;20043;-69
2024/02/08 05:06:46;;;;;;;6.70;2.00;;;-3276.40;97.30;;;;;;5046346;28;20139;-68
2024/02/08 05:09:15;;;;;;;4.70;2.30;;;-3276.50;97.30;;;;;;5045788;28;20017;-69
2024/02/08 05:11:43;;;;;;;5.78;2.03;;;-3276.50;97.20;;;;;;5046270;28;20036;-69
2024/02/08 05:14:09;;;;;;;4.85;1.80;;;-3276.50;97.10;;;;;;5051766;28;20073;-69
2024/02/08 05:16:36;;;;;;;4.85;1.85;;;-3276.50;97.10;;;;;;5047230;28;20049;-69
2024/02/08 05:19:02;;;;;;;3.35;1.85;;;-3276.50;97.00;;;;;;5046544;28;20067;-69
2024/02/08 05:21:33;;;;;;;6.07;3.42;;;-3276.50;97.00;;;;;;5049226;28;20094;-69
2024/02/08 05:23:59;;;;;;;6.45;2.20;;;-3276.50;97.00;;;;;;5047339;28;20096;-69
2024/02/08 05:26:25;;;;;;;6.47;1.80;;;-3276.50;97.00;;;;;;5041062;28;20029;-69
2024/02/08 05:28:54;;;;;;;2.65;1.77;;;-3276.50;96.90;;;;;;5048335;28;20025;-67
2024/02/08 05:31:20;;;;;;;6.18;2.15;;;-3276.50;97.00;;;;;;5044779;28;20115;-68
2024/02/08 05:33:46;;;;;;;5.03;2.15;;;-3276.50;97.00;;;;;;5044237;28;20564;-68
2024/02/08 05:36:17;;;;;;;5.95;1.98;;;-3276.50;97.00;;;;;;5049337;28;20367;-68
2024/02/08 05:38:42;;;;;;;3.30;1.92;;;-3276.60;97.10;;;;;;5048597;28;20044;-69
2024/02/08 05:41:09;;;;;;;5.25;2.17;;;-3276.60;97.10;;;;;;5042644;28;20505;-68
2024/02/08 05:43:45;;;;;;;5.28;2.50;;;-3276.60;97.10;;;;;;5047137;28;20021;-67
2024/02/08 05:46:14;;;;;;;3.00;1.90;;;-3276.60;97.10;;;;;;5043961;28;20478;-68
2024/02/08 05:48:40;;;;;;;4.85;1.98;;;-3276.60;97.10;;;;;;5046113;28;20051;-69
2024/02/08 05:51:11;;;;;;;4.63;2.25;;;-3276.60;97.00;;;;;;5044986;28;20123;-68
2024/02/08 05:53:40;;;;;;;6.68;2.10;;;-3276.70;96.90;;;;;;5045483;28;20086;-68
2024/02/08 05:56:08;;;;;;;4.18;2.00;;;-3276.70;96.80;;;;;;5044712;28;20052;-68
2024/02/08 05:58:34;;;;;;;6.38;2.33;;;-3276.70;96.70;;;;;;5043688;28;20040;-67
2024/02/08 06:01:01;;;;;;;6.60;2.30;;;-3276.70;96.70;;;;;;5046685;28;20180;-68
2024/02/08 06:03:33;;;;;;;6.53;2.25;;;-3276.70;96.60;;;;;;5046913;28;20617;-68
2024/02/08 06:06:16;;;;;;;4.68;2.00;;;0.00;96.60;;;;;;5050792;28;20025;-68
2024/02/08 06:08:42;;;;;;;3.78;1.92;;;0.00;96.40;;;;;;5050129;28;20029;-68
2024/02/08 06:11:22;;;;;;;8.68;2.75;;;-3276.70;96.40;;;;;;5045455;28;20051;-67
2024/02/08 06:13:58;;;;;;;5.25;2.30;;;-3276.70;96.40;;;;;;5048540;28;20478;-68
2024/02/08 06:16:29;;;;;;;8.02;2.72;;;-3276.70;96.40;;;;;;5050400;28;20044;-68
2024/02/08 06:18:57;;;;;;;4.32;2.17;;;-3276.70;96.40;;;;;;5049485;28;20040;-68
2024/02/08 06:21:38;;;;;;;7.30;2.10;;;-3276.70;96.40;;;;;;5043022;28;20361;-67
2024/02/08 06:27:13;;;;;;;3.20;2.33;;;-3276.70;96.50;;;;;;5048737;28;20088;-68
2024/02/08 06:29:46;;;;;;;5.80;2.60;;;-3276.70;96.50;;;;;;5047644;28;20400;-68
2024/02/08 06:35:07;;;;;;;6.63;2.30;;;-3276.70;96.60;;;;;;5047229;28;20139;-66
2024/02/08 06:37:45;;;;;;;5.75;2.70;;;-3276.70;96.60;;;;;;5047708;28;20065;-67
2024/02/08 06:40:21;;;;;;;4.85;2.13;;;-3276.70;96.70;;;;;;5047007;28;20147;-66
2024/02/08 06:45:40;;;;;;;3.90;2.30;;;-3276.70;96.80;;;;;;5049149;28;20029;-66
2024/02/08 06:48:35;;;;;;;3.88;1.95;;;-3276.60;96.80;;;;;;5037248;28;20529;-66
2024/02/08 07:37:46;;;;;;;5.78;2.40;;;0.00;96.90;;;;;;5041632;28;20086;-68
2024/02/08 07:40:26;;;;;;;4.85;1.95;;;0.00;96.90;;;;;;5039443;28;20049;-67
2024/02/08 07:46:10;;;;;;;6.07;2.92;;;0.10;96.90;;;;;;5045395;28;20081;-68
2024/02/08 07:48:39;;;;;;;4.93;2.80;;;0.10;96.80;;;;;;5041478;28;20050;-68
2024/02/08 07:51:05;;;;;;;5.55;2.22;;;0.10;96.80;;;;;;5047674;28;20362;-68
2024/02/08 07:53:35;;;;;;;10.15;3.10;;;0.10;96.80;;;;;;5046836;28;20032;-68
2024/02/08 07:56:29;;;;;;;3.33;1.85;;;0.20;96.80;;;;;;5043525;28;20035;-68
2024/02/08 07:58:56;;;;;;;4.03;2.28;;;0.10;96.80;;;;;;5042824;28;20170;-68
2024/02/08 08:01:29;;;;;;;5.50;2.40;;;0.20;96.70;;;;;;5053311;28;20029;-68
2024/02/08 08:03:56;;;;;;;3.70;2.30;;;0.20;96.80;;;;;;5053677;28;20024;-68
2024/02/08 08:06:23;;;;;;;4.18;2.13;;;0.20;96.80;;;;;;5043310;28;20473;-68
2024/02/08 08:08:57;;;;;;;8.73;3.30;;;0.30;96.70;;;;;;5052183;28;20101;-68
2024/02/08 08:11:30;;;;;;;4.85;2.17;;;0.30;96.70;;;;;;5047636;28;20174;-68
2024/02/08 08:18:58;;;;;;;5.97;2.20;;;0.40;96.50;;;;;;5048546;28;20449;-68
2024/02/08 08:21:29;;;;;;;4.25;2.50;;;0.40;96.40;;;;;;5044413;28;20394;-68
2024/02/08 08:24:02;;;;;;;4.70;1.95;;;0.50;96.40;;;;;;5050207;28;20017;-68
2024/02/08 08:26:39;;;;;;;4.07;2.00;;;0.60;96.50;;;;;;5042514;28;20355;-68
2024/02/08 08:29:16;;;;;;;6.38;2.05;;;0.60;96.20;;;;;;5041024;28;20036;-68
2024/02/08 08:31:52;;;;;;;4.88;2.42;;;0.60;96.20;;;;;;5048098;28;20261;-67
2024/02/08 08:37:03;;;;;;;4.72;2.60;;;0.70;96.30;;;;;;5044113;28;20036;-68
2024/02/08 08:39:46;;;;;;;5.45;2.67;;;0.80;96.20;;;;;;5045533;28;20460;-68
2024/02/08 08:42:23;;;;;;;5.13;2.05;;;0.80;96.00;;;;;;5041599;28;20041;-68
2024/02/08 08:44:51;;;;;;;6.68;2.15;;;0.80;95.80;;;;;;5046973;28;20021;-68
2024/02/08 08:47:17;;;;;;;3.95;2.33;;;0.90;95.80;;;;;;5049706;28;20386;-69
2024/02/08 08:49:43;;;;;;;4.50;2.15;;;0.90;95.70;;;;;;5046728;28;20037;-68
2024/02/08 08:52:10;;;;;;;3.72;2.15;;;1.00;95.70;;;;;;5047547;28;20124;-68
2024/02/08 08:54:36;;;;;;;4.28;2.33;;;1.00;95.40;;;;;;5038707;28;20415;-69
2024/02/08 08:57:12;;;;;;;4.43;2.53;;;1.10;95.20;;;;;;5050665;28;20021;-68
2024/02/08 08:59:42;;;;;;;4.40;2.10;;;1.10;95.00;;;;;;5055427;28;20080;-68
2024/02/08 09:02:08;;;;;;;4.05;2.10;;;1.10;94.80;;;;;;5049218;28;20068;-68
2024/02/08 09:04:35;;;;;;;7.30;2.47;;;1.20;94.60;;;;;;5058143;28;20432;-68
2024/02/08 09:07:11;;;;;;;4.80;2.28;;;1.20;94.70;;;;;;5042085;28;20463;-68
2024/02/08 09:09:54;;;;;;;4.50;2.15;;;1.20;94.70;;;;;;5044918;28;20029;-69
2024/02/08 09:12:30;;;;;;;5.40;1.55;;;1.20;94.50;;;;;;5040655;28;20033;-68
2024/02/08 09:14:59;;;;;;;3.42;2.13;;;1.30;94.60;;;;;;5041892;28;20432;-68
2024/02/08 09:17:40;;;;;;;3.30;1.95;;;1.30;94.40;;;;;;5046134;28;20056;-68
2024/02/08 09:20:19;;;;;;;4.55;1.83;;;1.40;94.20;;;;;;5045372;28;20223;-69
2024/02/08 09:22:46;;;;;;;3.22;1.77;;;1.50;94.00;;;;;;5042198;28;20045;-69
2024/02/08 09:25:12;;;;;;;5.32;2.00;;;1.40;93.60;;;;;;5027262;28;20036;-68
2024/02/08 09:27:38;;;;;;;5.45;2.15;;;1.60;93.80;;;;;;5045724;28;20439;-69
2024/02/08 09:30:13;;;;;;;3.63;2.30;;;1.60;93.80;;;;;;5045804;28;20040;-68
2024/02/08 09:32:44;;;;;;;5.35;1.90;;;1.70;93.70;;;;;;5046008;28;20303;-69
2024/02/08 09:35:13;;;;;;;6.10;2.00;;;1.80;93.50;;;;;;5042908;28;20098;-69
2024/02/08 09:37:39;;;;;;;4.75;2.47;;;1.70;92.70;;;;;;5039674;28;20061;-69
2024/02/08 09:40:18;;;;;;;2.65;1.60;;;1.90;92.90;;;;;;5058736;28;20104;-68
2024/02/08 09:42:54;;;;;;;2.97;1.83;;;1.90;92.90;;;;;;5057775;28;20119;-68
2024/02/08 09:48:05;;;;;;;7.30;2.22;;;2.00;92.70;;;;;;5055209;28;20032;-69
2024/02/08 09:50:37;;;;;;;4.05;1.85;;;2.00;92.60;;;;;;5058882;28;20482;-68
2024/02/08 09:53:15;;;;;;;3.05;1.33;;;2.10;92.50;;;;;;5030401;28;20029;-68
2024/02/08 09:55:48;;;;;;;6.40;2.15;;;2.10;92.40;;;;;;5047372;28;20478;-69
2024/02/08 09:58:30;;;;;;;4.78;1.92;;;2.20;92.40;;;;;;5033311;28;20047;-68
2024/02/08 10:00:58;;;;;;;3.92;1.65;;;2.20;91.40;;;;;;5050083;28;20052;-68
2024/02/08 10:03:36;;;;;;;2.88;1.80;;;2.10;91.20;;;;;;5051981;28;20028;-68
2024/02/08 10:06:13;;;;;;;5.60;1.65;;;2.20;91.50;;;;;;5049063;28;20056;-67
2024/02/08 10:09:01;;;;;;;3.78;1.92;;;2.20;91.30;;;;;;5047833;28;20056;-67
2024/02/08 10:11:36;;;;;;;2.42;1.75;;;2.30;91.80;;;;;;5047641;28;20481;-67
2024/02/08 10:14:02;;;;;;;3.40;1.75;;;2.40;92.00;;;;;;5048663;28;20083;-68
2024/02/08 10:16:47;;;;;;;5.90;1.70;;;2.50;92.10;;;;;;5056535;28;20076;-67
2024/02/08 10:21:57;;;;;;;6.25;1.98;;;2.50;91.00;;;;;;5049526;28;20095;-68
2024/02/08 10:24:28;;;;;;;4.32;1.73;;;2.60;91.30;;;;;;5048244;28;20105;-67
2024/02/08 10:26:58;;;;;;;3.05;1.40;;;2.60;91.10;;;;;;5045377;28;20102;-68
2024/02/08 10:29:25;;;;;;;3.38;1.55;;;2.60;91.10;;;;;;5048915;28;20380;-67
2024/02/08 10:31:54;;;;;;;2.42;1.17;;;2.70;91.00;;;;;;5047615;28;20359;-68
2024/02/08 10:34:33;;;;;;;3.38;1.80;;;2.60;90.70;;;;;;5046991;28;20539;-68
2024/02/08 10:36:59;;;;;;;2.58;1.77;;;2.60;90.40;;;;;;5042744;28;20104;-68
2024/02/08 10:39:25;;;;;;;3.60;1.55;;;2.80;90.80;;;;;;5045906;28;20028;-68
2024/02/08 10:41:57;;;;;;;4.22;1.60;;;2.90;90.80;;;;;;5046017;28;20040;-68
2024/02/08 10:44:27;;;;;;;4.60;1.42;;;2.90;90.50;;;;;;5040002;28;20029;-68
2024/02/08 10:47:06;;;;;;;1.52;1.05;;;3.00;90.40;;;;;;5046623;28;20343;-68
2024/02/08 10:49:44;;;;;;;4.00;1.40;;;3.00;90.20;;;;;;5038347;28;20109;-69
2024/02/08 10:52:19;;;;;;;3.63;1.25;;;2.90;88.60;;;;;;5042259;28;20039;-68
2024/02/08 10:54:51;;;;;;;3.85;1.17;;;3.00;88.70;;;;;;5053723;28;20116;-68
2024/02/08 11:00:49;;;;;;;3.10;1.33;;;3.10;88.30;;;;;;5044998;28;20044;-67
2024/02/08 11:02:48;;;;;;;2.92;1.30;;;3.10;88.10;;;;;;5048300;28;20382;-68
2024/02/08 11:06:00;;;;;;;2.95;1.20;;;3.20;88.80;;;;;;5044701;28;20049;-68
2024/02/08 11:08:13;;;;;;;4.55;1.83;;;3.30;89.00;;;;;;5029384;28;20033;-67
2024/02/08 11:10:42;;;;;;;4.70;2.08;;;3.40;89.70;;;;;;5045773;28;20083;-68
2024/02/08 11:13:13;;;;;;;4.25;1.80;;;3.40;89.90;;;;;;5047367;28;20024;-68
2024/02/08 11:15:48;;;;;;;3.22;1.27;;;3.40;90.00;;;;;;5049742;28;20444;-68
2024/02/08 11:18:33;;;;;;;6.57;2.00;;;3.30;89.60;;;;;;5049872;28;20332;-68
2024/02/08 11:21:04;;;;;;;2.80;1.20;;;3.40;90.40;;;;;;5043256;28;20047;-69
2024/02/08 11:23:31;;;;;;;3.33;1.55;;;3.20;90.10;;;;;;5047586;28;20051;-68
2024/02/08 11:26:08;;;;;;;3.50;1.63;;;3.10;90.40;;;;;;5043759;28;20456;-68
2024/02/08 11:28:47;;;;;;;4.57;2.08;;;3.20;90.90;;;;;;5039436;28;20120;-67
2024/02/08 11:31:16;;;;;;;5.82;1.95;;;3.30;91.30;;;;;;5051178;28;20450;-67
2024/02/08 11:33:42;;;;;;;3.35;2.05;;;3.30;91.00;;;;;;5045789;28;20117;-68
2024/02/08 11:36:21;;;;;;;4.68;1.85;;;3.30;90.50;;;;;;5043495;28;20063;-68
2024/02/08 11:38:53;;;;;;;6.93;1.67;;;3.40;90.80;;;;;;5043244;28;20168;-68
2024/02/08 11:41:25;;;;;;;3.25;1.48;;;3.40;90.80;;;;;;5045551;28;20099;-68
2024/02/08 11:44:05;;;;;;;2.72;1.70;;;3.50;90.80;;;;;;5047713;28;20459;-67
2024/02/08 11:47:19;;;;;;;4.72;1.85;;;3.50;90.60;;;;;;5042649;28;20359;-67
2024/02/08 11:49:31;;;;;;;7.95;1.85;;;3.40;90.70;;;;;;5041472;28;20226;-66
2024/02/08 11:51:57;;;;;;;3.63;1.55;;;3.50;90.70;;;;;;5045321;28;20029;-66
2024/02/08 11:54:27;;;;;;;10.15;2.53;;;3.50;90.50;;;;;;5039028;28;20539;-70
2024/02/08 11:56:56;;;;;;;3.90;1.80;;;3.60;90.50;;;;;;5025617;28;20039;-66
2024/02/08 11:59:24;;;;;;;3.38;1.42;;;3.80;90.20;;;;;;5047519;28;20250;-66
2024/02/08 12:01:51;;;;;;;4.47;1.75;;;3.80;89.70;;;;;;5047529;28;20154;-68
2024/02/08 12:04:17;;;;;;;5.50;1.63;;;3.80;89.90;;;;;;5048824;28;20066;-69
2024/02/08 12:06:46;;;;;;;4.20;1.75;;;3.90;89.50;;;;;;5047332;28;20056;-69
2024/02/08 12:09:22;;;;;;;4.40;1.45;;;3.80;89.20;;;;;;5031349;28;20109;-66
2024/02/08 12:11:49;;;;;;;4.20;1.63;;;3.80;89.90;;;;;;5028103;28;20025;-67
2024/02/08 12:14:16;;;;;;;3.78;1.50;;;3.80;89.60;;;;;;5053934;28;20381;-67
2024/02/08 12:16:46;;;;;;;4.28;1.65;;;3.80;89.20;;;;;;5048893;28;20091;-66
2024/02/08 12:19:17;;;;;;;3.70;1.93;;;3.70;88.60;;;;;;5044938;28;20195;-67
2024/02/08 12:21:42;;;;;;;8.30;1.77;;;3.60;88.70;;;;;;5045307;28;20077;-67
2024/02/08 12:24:15;;;;;;;6.53;2.35;;;3.80;89.70;;;;;;5047608;28;20131;-67
2024/02/08 12:26:43;;;;;;;5.75;1.80;;;3.90;89.80;;;;;;5045502;28;20033;-67
2024/02/08 12:29:16;;;;;;;3.72;1.23;;;3.90;89.10;;;;;;5045064;28;20025;-67
2024/02/08 12:31:45;;;;;;;3.47;1.40;;;4.00;88.70;;;;;;5046465;28;20033;-66
2024/02/08 12:34:13;;;;;;;2.45;1.50;;;3.90;88.50;;;;;;5042262;28;20065;-67
2024/02/08 12:36:44;;;;;;;3.58;1.05;;;3.90;88.50;;;;;;5044381;28;20113;-67
2024/02/08 12:39:18;;;;;;;5.70;1.88;;;4.00;88.90;;;;;;5044394;28;20123;-67
2024/02/08 12:41:45;;;;;;;5.97;1.35;;;4.00;88.90;;;;;;5040614;28;20061;-68
2024/02/08 12:44:12;;;;;;;4.90;1.75;;;3.80;88.10;;;;;;5051900;28;20028;-68
2024/02/08 12:46:37;;;;;;;2.33;0.90;;;3.80;88.60;;;;;;5032289;28;20109;-68
2024/02/08 12:49:02;;;;;;;4.35;1.85;;;3.80;88.80;;;;;;5049869;28;20530;-69
2024/02/08 12:51:28;;;;;;;3.08;1.17;;;3.70;89.50;;;;;;5051947;28;20035;-68
2024/02/08 12:54:02;;;;;;;4.28;1.30;;;3.80;89.70;;;;;;5047533;28;20431;-68
2024/02/08 12:56:27;;;;;;;2.90;1.30;;;3.60;89.40;;;;;;5043696;28;20033;-68
2024/02/08 12:59:00;;;;;;;5.22;1.95;;;3.60;90.10;;;;;;5044624;28;20127;-68
2024/02/08 13:01:34;;;;;;;2.97;1.50;;;3.60;90.20;;;;;;5046292;28;20085;-67
2024/02/08 13:03:59;;;;;;;4.88;1.42;;;3.80;90.70;;;;;;5047338;28;20025;-69
2024/02/08 13:06:25;;;;;;;2.33;1.42;;;3.80;90.30;;;;;;5039081;28;20339;-68
2024/02/08 13:09:46;;;;;;;4.03;1.35;;;3.80;90.40;;;;;;5046601;28;20564;-68
2024/02/08 13:12:15;;;;;;;3.30;1.20;;;3.80;89.90;;;;;;5034355;28;20108;-68
2024/02/08 13:15:06;;;;;;;3.83;1.60;;;3.80;89.50;;;;;;5042433;28;20044;-69
2024/02/08 13:17:35;;;;;;;3.00;1.42;;;3.60;89.40;;;;;;5046587;28;20394;-69
2024/02/08 13:20:12;;;;;;;3.53;1.52;;;3.70;89.90;;;;;;5045262;28;20049;-68
2024/02/08 13:22:40;;;;;;;3.92;1.70;;;3.70;90.20;;;;;;5051549;28;20104;-68
2024/02/08 13:25:15;;;;;;;2.63;1.52;;;3.80;90.20;;;;;;5031256;28;20081;-68
2024/02/08 13:27:44;;;;;;;4.43;1.33;;;3.80;90.10;;;;;;5046638;28;20021;-67
2024/02/08 13:30:17;;;;;;;7.90;1.50;;;3.80;89.50;;;;;;5044210;28;20172;-67
2024/02/08 13:32:55;;;;;;;2.33;1.50;;;3.80;89.60;;;;;;5039992;28;20521;-68
2024/02/08 13:35:22;;;;;;;4.97;1.52;;;3.70;89.80;;;;;;5038639;28;20033;-67
2024/02/08 13:37:50;;;;;;;3.30;1.40;;;3.60;89.70;;;;;;5046281;28;20037;-68
2024/02/08 13:40:25;;;;;;;3.33;1.45;;;3.60;90.00;;;;;;5042803;28;20047;-69
2024/02/08 13:42:56;;;;;;;3.08;1.60;;;3.60;90.50;;;;;;5046132;28;20033;-69
2024/02/08 13:45:25;;;;;;;3.58;1.63;;;3.60;90.80;;;;;;5045384;28;20039;-68
2024/02/08 13:47:54;;;;;;;2.70;1.30;;;3.60;90.70;;;;;;5055456;28;20124;-68
2024/02/08 13:50:22;;;;;;;4.05;0.98;;;3.60;90.80;;;;;;5049813;28;20131;-68
2024/02/08 13:52:48;;;;;;;2.95;1.00;;;3.60;90.80;;;;;;5044567;28;20024;-68
2024/02/08 13:55:17;;;;;;;2.78;1.20;;;3.60;90.70;;;;;;5047495;28;20029;-68
2024/02/08 13:57:46;;;;;;;4.60;1.17;;;3.60;90.20;;;;;;5044657;28;20035;-68
2024/02/08 14:00:20;;;;;;;5.68;1.25;;;3.50;90.10;;;;;;5042678;28;20482;-68
2024/02/08 14:02:49;;;;;;;3.65;1.20;;;3.50;90.10;;;;;;5040013;28;20044;-68
2024/02/08 14:05:18;;;;;;;2.35;1.10;;;3.50;90.40;;;;;;5045983;28;20113;-68
2024/02/08 14:07:47;;;;;;;2.38;1.00;;;3.40;90.40;;;;;;5038743;28;20032;-68
2024/02/08 14:10:14;;;;;;;2.78;1.23;;;3.40;90.60;;;;;;5041194;28;20079;-68
2024/02/08 14:12:45;;;;;;;4.30;0.98;;;3.40;90.80;;;;;;5035275;28;20060;-68
2024/02/08 14:15:11;;;;;;;3.08;1.25;;;3.30;90.90;;;;;;5046584;28;20060;-68
2024/02/08 14:17:40;;;;;;;1.65;0.90;;;3.30;91.10;;;;;;5039731;28;20170;-68
2024/02/08 14:20:30;;;;;;;4.18;0.98;;;3.30;91.30;;;;;;5039942;28;20394;-68
2024/02/08 14:23:01;;;;;;;2.42;1.25;;;3.30;91.50;;;;;;5038101;28;20037;-70
2024/02/08 14:25:37;;;;;;;3.70;0.95;;;3.20;91.20;;;;;;5026011;28;20163;-68
2024/02/08 14:28:09;;;;;;;4.05;1.17;;;3.20;91.30;;;;;;5046931;28;20036;-68
2024/02/08 14:30:35;;;;;;;4.85;1.13;;;3.30;91.50;;;;;;5042842;28;20028;-67
2024/02/08 14:33:00;;;;;;;3.97;1.40;;;3.20;91.60;;;;;;5046915;28;20040;-67
2024/02/08 14:35:31;;;;;;;4.60;1.30;;;3.20;91.60;;;;;;5025469;28;20107;-67
2024/02/08 14:37:57;;;;;;;1.75;1.02;;;3.20;91.60;;;;;;5047110;28;20088;-68
2024/02/08 14:40:27;;;;;;;2.20;1.23;;;3.20;91.70;;;;;;5047897;28;20052;-67
2024/02/08 14:42:57;;;;;;;2.30;1.17;;;3.20;91.80;;;;;;5050496;28;20054;-69
2024/02/08 14:45:24;;;;;;;2.15;1.30;;;3.10;91.90;;;;;;5052799;28;20278;-68
2024/02/08 14:47:51;;;;;;;3.13;0.88;;;3.10;91.90;;;;;;5052478;28;20036;-67
2024/02/08 14:53:05;;;;;;;2.65;1.10;;;3.20;92.10;;;;;;5048575;28;20162;-67
2024/02/08 14:55:35;;;;;;;7.50;2.22;;;3.10;92.10;;;;;;5051350;28;20028;-69
2024/02/08 14:58:01;;;;;;;2.70;1.17;;;3.10;92.10;;;;;;5045198;28;20051;-68
2024/02/08 15:03:20;;;;;;;1.75;0.90;;;3.10;92.20;;;;;;5049462;28;20056;-68